Time;durP1;ratioP1;P1;durP2;ratioP2;P2;SDS_P1;SDS_P2;PMS_P1;PMS_P2;Temp;Humidity;BMP_temperature;BMP_pressure;BME280_temperature;BME280_humidity;BME280_pressure;Samples;Min_cycle;Max_cycle;Signal;HPM_P1;HPM_P2
2022/06/21 00:01:00;;;;;;;3.13;1.20;;;;;;;;;;6105451;23;20163;-43
2022/06/21 00:03:28;;;;;;;2.88;1.13;;;;;;;;;;6130633;23;20189;-44
2022/06/21 00:05:55;;;;;;;2.22;1.25;;;;;;;;;;6105077;23;20249;-43
2022/06/21 00:08:26;;;;;;;4.75;1.33;;;;;;;;;;6130158;23;20185;-44
2022/06/21 00:10:55;;;;;;;3.03;1.20;;;;;;;;;;6130714;23;20182;-43
2022/06/21 00:13:27;;;;;;;4.90;1.45;;;;;;;;;;6104784;23;20196;-43
2022/06/21 00:16:00;;;;;;;5.97;1.65;;;;;;;;;;6130254;23;20495;-43
2022/06/21 00:18:29;;;;;;;3.17;1.63;;;;;;;;;;6104618;23;20162;-43
2022/06/21 00:20:57;;;;;;;4.60;1.77;;;;;;;;;;6104663;23;20182;-43
2022/06/21 00:23:28;;;;;;;4.43;1.80;;;;;;;;;;6104782;23;20182;-44
2022/06/21 00:25:56;;;;;;;3.88;1.98;;;;;;;;;;6129665;23;20194;-44
2022/06/21 00:28:23;;;;;;;6.65;1.95;;;;;;;;;;6129566;23;20613;-44
2022/06/21 00:30:52;;;;;;;6.40;2.17;;;;;;;;;;6129935;23;20170;-44
2022/06/21 00:33:22;;;;;;;4.30;2.10;;;;;;;;;;6129935;23;20171;-46
2022/06/21 00:35:53;;;;;;;6.00;2.10;;;;;;;;;;6105475;23;20158;-44
2022/06/21 00:38:29;;;;;;;3.72;2.08;;;;;;;;;;6104802;23;20222;-43
2022/06/21 00:40:57;;;;;;;4.50;1.88;;;;;;;;;;6129900;23;20225;-43
2022/06/21 00:43:29;;;;;;;3.47;1.80;;;;;;;;;;6104402;23;20673;-47
2022/06/21 00:45:56;;;;;;;5.88;2.20;;;;;;;;;;6129784;23;20261;-44
2022/06/21 00:48:27;;;;;;;4.63;2.03;;;;;;;;;;6129432;23;20202;-43
2022/06/21 00:50:57;;;;;;;6.35;1.80;;;;;;;;;;6104629;23;20171;-46
2022/06/21 00:53:32;;;;;;;4.55;1.70;;;;;;;;;;6129473;23;20166;-44
2022/06/21 00:56:13;;;;;;;5.00;1.75;;;;;;;;;;6104109;23;20172;-44
2022/06/21 00:58:40;;;;;;;4.95;1.90;;;;;;;;;;6104752;23;20158;-46
2022/06/21 01:01:28;;;;;;;4.28;1.50;;;;;;;;;;6129668;23;20245;-44
2022/06/21 01:04:04;;;;;;;3.40;1.85;;;;;;;;;;6104578;23;20173;-44
2022/06/21 01:06:38;;;;;;;2.38;1.40;;;;;;;;;;6129730;23;20214;-44
2022/06/21 01:09:15;;;;;;;5.10;1.30;;;;;;;;;;6129305;23;20162;-43
2022/06/21 01:11:46;;;;;;;2.85;1.25;;;;;;;;;;6105000;23;20158;-44
2022/06/21 01:14:15;;;;;;;3.63;1.33;;;;;;;;;;6104524;23;20173;-43
2022/06/21 01:16:42;;;;;;;1.50;1.40;;;;;;;;;;6104212;23;20178;-44
2022/06/21 01:19:38;;;;;;;4.25;2.50;;;;;;;;;;6104215;23;20249;-44
2022/06/21 01:22:14;;;;;;;4.00;2.65;;;;;;;;;;6067912;23;20486;-43
2022/06/21 01:25:22;;;;;;;2.80;2.60;;;;;;;;;;6129566;23;20158;-43
2022/06/21 01:27:54;;;;;;;9.75;2.90;;;;;;;;;;6129152;23;20162;-43
2022/06/21 01:30:22;;;;;;;5.47;3.58;;;;;;;;;;6129294;23;20465;-43
2022/06/21 01:32:50;;;;;;;4.65;3.70;;;;;;;;;;6104907;23;20170;-45
2022/06/21 01:35:28;;;;;;;6.60;3.33;;;;;;;;;;6104310;23;20229;-44
2022/06/21 01:37:56;;;;;;;3.47;3.17;;;;;;;;;;6128981;23;20193;-43
2022/06/21 01:40:27;;;;;;;4.05;3.15;;;;;;;;;;6104323;23;20472;-43
2022/06/21 01:42:58;;;;;;;3.53;3.00;;;;;;;;;;6104114;23;20159;-45
2022/06/21 01:45:35;;;;;;;5.03;3.05;;;;;;;;;;6103977;23;20186;-43
2022/06/21 01:48:19;;;;;;;4.13;3.08;;;;;;;;;;6103850;23;20197;-44
2022/06/21 01:50:47;;;;;;;4.32;3.67;;;;;;;;;;6104130;23;20158;-44
2022/06/21 01:53:17;;;;;;;4.18;3.03;;;;;;;;;;6103912;23;20237;-43
2022/06/21 01:56:00;;;;;;;5.43;3.50;;;;;;;;;;6128744;23;20174;-44
2022/06/21 01:58:41;;;;;;;6.20;2.55;;;;;;;;;;6129313;23;20159;-44
2022/06/21 02:01:15;;;;;;;5.60;1.77;;;;;;;;;;6104581;23;20261;-44
2022/06/21 02:03:44;;;;;;;2.75;1.50;;;;;;;;;;6104053;23;20153;-45
2022/06/21 02:06:13;;;;;;;2.08;1.67;;;;;;;;;;6104045;23;20284;-45
2022/06/21 02:09:02;;;;;;;2.60;1.80;;;;;;;;;;6128640;23;20241;-44
2022/06/21 02:11:36;;;;;;;2.85;1.70;;;;;;;;;;6128605;23;20514;-46
2022/06/21 02:16:53;;;;;;;3.15;1.50;;;;;;;;;;6107417;23;20178;-44
2022/06/21 02:19:30;;;;;;;1.90;1.30;;;;;;;;;;6103366;23;20184;-45
2022/06/21 02:21:57;;;;;;;1.60;1.50;;;;;;;;;;6103375;23;20166;-45
2022/06/21 02:24:28;;;;;;;3.30;1.38;;;;;;;;;;6128924;23;20472;-43
2022/06/21 02:26:56;;;;;;;4.30;1.60;;;;;;;;;;6129035;23;20210;-43
2022/06/21 02:29:23;;;;;;;1.70;1.60;;;;;;;;;;6103903;23;20180;-43
2022/06/21 02:31:50;;;;;;;2.25;2.00;;;;;;;;;;6128456;23;20624;-43
2022/06/21 02:34:22;;;;;;;2.50;2.30;;;;;;;;;;6102910;23;20178;-43
2022/06/21 02:36:52;;;;;;;5.43;2.38;;;;;;;;;;6104190;23;20166;-43
2022/06/21 02:39:22;;;;;;;2.88;2.58;;;;;;;;;;6079569;23;20162;-44
2022/06/21 02:41:57;;;;;;;5.95;2.30;;;;;;;;;;6103431;23;20224;-44
2022/06/21 02:44:26;;;;;;;2.40;2.20;;;;;;;;;;6104230;23;20177;-43
2022/06/21 02:46:55;;;;;;;5.28;1.80;;;;;;;;;;6103550;23;20190;-43
2022/06/21 02:49:34;;;;;;;3.13;1.60;;;;;;;;;;6098825;23;20210;-43
2022/06/21 02:52:05;;;;;;;5.10;1.52;;;;;;;;;;6122874;23;20155;-44
2022/06/21 02:54:37;;;;;;;2.58;1.20;;;;;;;;;;6098429;23;20159;-43
2022/06/21 02:57:08;;;;;;;1.55;1.08;;;;;;;;;;6122136;23;20226;-44
2022/06/21 02:59:38;;;;;;;4.40;1.40;;;;;;;;;;6099421;23;20174;-43
2022/06/21 03:02:10;;;;;;;1.15;1.05;;;;;;;;;;6099023;23;20622;-44
2022/06/21 03:04:47;;;;;;;2.90;1.00;;;;;;;;;;6122137;23;20182;-43
2022/06/21 03:07:16;;;;;;;2.83;0.80;;;;;;;;;;6098378;23;20241;-43
2022/06/21 03:09:44;;;;;;;3.17;1.20;;;;;;;;;;6097866;23;20186;-43
2022/06/21 03:12:17;;;;;;;1.63;1.25;;;;;;;;;;6098949;23;20190;-44
2022/06/21 03:14:45;;;;;;;1.75;1.05;;;;;;;;;;6098898;23;20222;-42
2022/06/21 03:17:14;;;;;;;1.20;1.00;;;;;;;;;;6121935;23;20234;-44
2022/06/21 03:19:46;;;;;;;2.28;1.00;;;;;;;;;;6098897;23;20186;-44
2022/06/21 03:22:23;;;;;;;4.05;0.88;;;;;;;;;;6122348;23;20194;-43
2022/06/21 03:24:53;;;;;;;2.20;1.15;;;;;;;;;;6098725;23;20185;-45
2022/06/21 03:27:20;;;;;;;2.88;0.90;;;;;;;;;;6098105;23;20209;-43
2022/06/21 03:29:47;;;;;;;0.70;0.68;;;;;;;;;;6099207;23;20174;-43
2022/06/21 03:32:14;;;;;;;4.03;1.00;;;;;;;;;;6099373;23;20467;-44
2022/06/21 03:34:42;;;;;;;1.95;0.70;;;;;;;;;;6097811;23;20175;-43
2022/06/21 03:37:09;;;;;;;2.97;0.68;;;;;;;;;;6099170;23;20193;-44
2022/06/21 03:42:36;;;;;;;1.77;0.80;;;;;;;;;;6022397;23;20176;-43
2022/06/21 03:45:17;;;;;;;3.35;0.70;;;;;;;;;;6122170;23;20155;-43
2022/06/21 03:47:57;;;;;;;1.20;0.73;;;;;;;;;;6106263;23;20271;-44
2022/06/21 03:50:59;;;;;;;1.85;0.77;;;;;;;;;;6102421;23;20162;-44
2022/06/21 03:53:32;;;;;;;3.90;0.80;;;;;;;;;;6099178;23;20188;-47
2022/06/21 03:56:10;;;;;;;2.45;1.55;;;;;;;;;;6104717;23;20166;-46
2022/06/21 03:58:44;;;;;;;2.35;1.70;;;;;;;;;;6103049;23;20162;-43
2022/06/21 04:01:16;;;;;;;4.43;1.85;;;;;;;;;;6128641;23;20173;-43
2022/06/21 04:03:51;;;;;;;3.95;2.15;;;;;;;;;;6102252;23;20163;-45
2022/06/21 04:06:33;;;;;;;3.97;1.98;;;;;;;;;;6128179;23;20276;-45
2022/06/21 04:09:32;;;;;;;5.60;2.17;;;;;;;;;;6127624;23;20597;-45
2022/06/21 04:12:11;;;;;;;2.58;1.90;;;;;;;;;;6113035;23;20229;-45
2022/06/21 04:15:08;;;;;;;2.55;2.35;;;;;;;;;;6128398;23;20166;-42
2022/06/21 04:17:49;;;;;;;4.72;2.20;;;;;;;;;;6084496;23;20170;-45
2022/06/21 04:20:23;;;;;;;3.17;2.63;;;;;;;;;;6096702;23;20226;-43
2022/06/21 04:23:30;;;;;;;4.35;3.03;;;;;;;;;;6102004;23;20194;-43
2022/06/21 04:26:10;;;;;;;3.15;2.75;;;;;;;;;;6008944;23;20209;-44
2022/06/21 04:29:10;;;;;;;3.10;2.80;;;;;;;;;;6010031;23;20196;-43
2022/06/21 04:31:55;;;;;;;4.97;2.88;;;;;;;;;;5927247;24;20203;-42
2022/06/21 04:34:27;;;;;;;3.45;3.13;;;;;;;;;;5926650;24;20203;-42
2022/06/21 04:37:00;;;;;;;6.40;3.10;;;;;;;;;;5928142;24;20202;-43
2022/06/21 04:39:36;;;;;;;3.35;3.05;;;;;;;;;;5927570;24;20226;-42
2022/06/21 04:42:12;;;;;;;4.18;3.10;;;;;;;;;;5905115;24;20207;-42
2022/06/21 04:44:46;;;;;;;6.40;3.53;;;;;;;;;;5926626;24;20295;-44
2022/06/21 04:47:27;;;;;;;5.07;3.50;;;;;;;;;;5927316;24;20278;-43
2022/06/21 04:50:02;;;;;;;4.30;3.38;;;;;;;;;;5926141;24;20217;-43
2022/06/21 04:52:35;;;;;;;6.95;3.30;;;;;;;;;;5905659;24;20198;-41
2022/06/21 04:55:03;;;;;;;5.70;3.17;;;;;;;;;;5925719;24;20202;-41
2022/06/21 04:57:32;;;;;;;3.65;3.17;;;;;;;;;;5927845;24;20271;-44
2022/06/21 05:00:03;;;;;;;4.90;2.80;;;;;;;;;;5904945;24;20549;-42
2022/06/21 05:02:42;;;;;;;3.00;2.70;;;;;;;;;;5979732;23;20235;-41
2022/06/21 05:05:16;;;;;;;4.20;2.70;;;;;;;;;;6009800;23;20494;-45
2022/06/21 05:07:54;;;;;;;3.35;2.88;;;;;;;;;;6077665;23;20233;-44
2022/06/21 05:10:25;;;;;;;4.10;2.60;;;;;;;;;;6127921;23;20265;-46
2022/06/21 05:12:54;;;;;;;4.63;2.35;;;;;;;;;;6128470;23;20213;-44
2022/06/21 05:15:24;;;;;;;5.50;2.40;;;;;;;;;;6128398;23;20484;-42
2022/06/21 05:17:58;;;;;;;2.67;2.22;;;;;;;;;;6103782;23;20194;-46
2022/06/21 05:20:28;;;;;;;9.60;2.60;;;;;;;;;;6127537;23;20208;-43
2022/06/21 05:22:58;;;;;;;5.63;2.30;;;;;;;;;;6103175;23;20194;-43
2022/06/21 05:25:34;;;;;;;2.25;1.70;;;;;;;;;;6128645;23;20198;-43
2022/06/21 05:28:17;;;;;;;2.85;2.00;;;;;;;;;;6127877;23;20194;-43
2022/06/21 05:30:50;;;;;;;3.33;1.90;;;;;;;;;;6129753;23;20178;-43
2022/06/21 05:33:25;;;;;;;8.05;2.20;;;;;;;;;;6104474;23;20162;-43
2022/06/21 05:35:52;;;;;;;6.03;2.13;;;;;;;;;;6129055;23;20184;-42
2022/06/21 05:38:25;;;;;;;5.47;1.80;;;;;;;;;;6104244;23;20241;-43
2022/06/21 05:40:56;;;;;;;4.00;2.00;;;;;;;;;;6103861;23;20660;-42
2022/06/21 05:43:38;;;;;;;4.65;1.80;;;;;;;;;;6104403;23;20154;-43
2022/06/21 05:46:14;;;;;;;4.03;2.20;;;;;;;;;;6104232;23;20197;-43
2022/06/21 05:48:43;;;;;;;1.98;1.70;;;;;;;;;;6129329;23;20204;-43
2022/06/21 05:51:20;;;;;;;3.28;2.15;;;;;;;;;;6103998;23;20193;-44
2022/06/21 05:53:50;;;;;;;3.28;2.33;;;;;;;;;;6104209;23;20185;-43
2022/06/21 05:56:21;;;;;;;2.25;2.00;;;;;;;;;;6129177;23;20283;-43
2022/06/21 05:59:01;;;;;;;3.90;2.25;;;;;;;;;;6105049;23;20229;-43
2022/06/21 06:01:33;;;;;;;4.70;2.17;;;;;;;;;;6129032;23;20173;-43
2022/06/21 06:04:05;;;;;;;5.45;3.78;;;;;;;;;;6103829;23;20162;-43
2022/06/21 06:06:35;;;;;;;5.13;2.55;;;;;;;;;;6128811;23;20196;-43
2022/06/21 06:09:09;;;;;;;3.03;2.30;;;;;;;;;;6129099;23;20181;-43
2022/06/21 06:11:58;;;;;;;4.75;2.75;;;;;;;;;;6104550;23;20155;-43
2022/06/21 06:14:40;;;;;;;7.30;2.78;;;;;;;;;;6105482;23;20578;-43
2022/06/21 06:17:20;;;;;;;7.10;2.30;;;;;;;;;;6103807;23;20170;-44
2022/06/21 06:19:58;;;;;;;2.97;2.50;;;;;;;;;;6138968;23;20158;-43
2022/06/21 06:22:34;;;;;;;3.88;2.10;;;;;;;;;;6103390;23;20162;-43
2022/06/21 06:25:15;;;;;;;3.97;1.85;;;;;;;;;;6129186;23;20158;-43
2022/06/21 06:28:20;;;;;;;6.18;2.55;;;;;;;;;;6104068;23;20205;-43
2022/06/21 06:31:04;;;;;;;2.28;1.90;;;;;;;;;;6085141;23;20177;-43
2022/06/21 06:33:43;;;;;;;4.03;2.15;;;;;;;;;;6129128;23;20189;-43
2022/06/21 06:36:14;;;;;;;4.32;2.38;;;;;;;;;;6128948;23;20225;-43
2022/06/21 06:38:42;;;;;;;4.95;1.88;;;;;;;;;;6128455;23;20166;-43
2022/06/21 06:41:20;;;;;;;5.10;1.92;;;;;;;;;;6128410;23;20173;-44
2022/06/21 06:43:51;;;;;;;3.63;1.95;;;;;;;;;;6104015;23;20503;-43
2022/06/21 06:46:33;;;;;;;3.25;1.95;;;;;;;;;;6128762;23;20197;-43
2022/06/21 06:49:38;;;;;;;4.80;1.88;;;;;;;;;;6128317;23;20221;-44
2022/06/21 06:52:09;;;;;;;3.55;1.77;;;;;;;;;;6095741;23;20185;-43
2022/06/21 06:54:55;;;;;;;3.25;1.90;;;;;;;;;;6128577;23;20162;-43
2022/06/21 06:57:47;;;;;;;4.28;1.88;;;;;;;;;;6129164;23;20173;-43
2022/06/21 07:00:18;;;;;;;4.90;1.90;;;;;;;;;;6103626;23;20155;-43
2022/06/21 07:02:52;;;;;;;4.45;2.00;;;;;;;;;;6128892;23;20455;-43
2022/06/21 07:05:44;;;;;;;3.17;1.95;;;;;;;;;;6103892;23;20172;-44
2022/06/21 07:08:17;;;;;;;2.25;1.60;;;;;;;;;;6103946;23;20186;-43
2022/06/21 07:10:46;;;;;;;2.75;2.08;;;;;;;;;;6103136;23;20490;-43
2022/06/21 07:13:13;;;;;;;3.55;1.95;;;;;;;;;;6103632;23;20177;-43
2022/06/21 07:15:42;;;;;;;5.95;2.10;;;;;;;;;;6103029;23;20185;-43
2022/06/21 07:18:31;;;;;;;7.78;2.33;;;;;;;;;;6103119;23;20178;-45
2022/06/21 07:21:05;;;;;;;4.22;1.90;;;;;;;;;;6128564;23;20217;-43
2022/06/21 07:23:32;;;;;;;3.20;1.95;;;;;;;;;;6103386;23;20228;-43
2022/06/21 07:26:12;;;;;;;3.58;1.60;;;;;;;;;;6103231;23;20507;-43
2022/06/21 07:28:53;;;;;;;3.38;1.80;;;;;;;;;;6103243;23;20225;-43
2022/06/21 07:31:31;;;;;;;3.83;1.50;;;;;;;;;;6103719;23;20182;-43
2022/06/21 07:34:08;;;;;;;2.33;1.55;;;;;;;;;;6103710;23;20165;-43
2022/06/21 07:36:43;;;;;;;2.33;1.20;;;;;;;;;;6128147;23;20166;-43
2022/06/21 07:39:25;;;;;;;3.03;1.50;;;;;;;;;;6103734;23;20529;-43
2022/06/21 07:42:02;;;;;;;10.82;1.60;;;;;;;;;;6128198;23;20602;-43
2022/06/21 07:44:39;;;;;;;3.67;1.48;;;;;;;;;;6103488;23;20165;-43
2022/06/21 07:47:11;;;;;;;1.80;1.52;;;;;;;;;;6102809;23;20182;-43
2022/06/21 07:49:43;;;;;;;2.40;1.65;;;;;;;;;;6103890;23;20185;-43
2022/06/21 07:52:24;;;;;;;3.38;1.10;;;;;;;;;;6103774;23;20162;-43
2022/06/21 07:54:57;;;;;;;2.75;1.60;;;;;;;;;;6103534;23;20154;-43
2022/06/21 07:57:32;;;;;;;1.60;1.35;;;;;;;;;;6128670;23;20177;-43
2022/06/21 08:00:21;;;;;;;3.75;1.70;;;;;;;;;;6103433;23;20162;-43
2022/06/21 08:08:55;;;;;;;5.60;1.77;;;;;;;;;;6109042;23;20197;-43
2022/06/21 08:11:25;;;;;;;10.00;2.40;;;;;;;;;;6129924;23;20570;-43
2022/06/21 08:13:52;;;;;;;5.82;1.67;;;;;;;;;;6104753;23;20602;-43
2022/06/21 08:16:22;;;;;;;3.97;1.63;;;;;;;;;;6130213;23;20189;-43
2022/06/21 08:18:56;;;;;;;4.57;1.98;;;;;;;;;;6105383;23;20466;-43
2022/06/21 08:21:31;;;;;;;4.18;2.00;;;;;;;;;;6130071;23;20512;-43
2022/06/21 08:24:07;;;;;;;4.35;2.17;;;;;;;;;;6130258;23;20229;-43
2022/06/21 08:26:46;;;;;;;2.33;1.58;;;;;;;;;;6104893;23;20189;-43
2022/06/21 08:29:20;;;;;;;2.05;1.50;;;;;;;;;;6104628;23;20173;-43
2022/06/21 08:31:51;;;;;;;3.13;1.92;;;;;;;;;;6130407;23;20237;-43
2022/06/21 08:34:24;;;;;;;1.85;1.23;;;;;;;;;;6105237;23;20166;-43
2022/06/21 08:36:56;;;;;;;1.77;1.10;;;;;;;;;;6104914;23;20158;-43
2022/06/21 08:39:50;;;;;;;1.73;1.38;;;;;;;;;;6130530;23;20165;-43
2022/06/21 08:42:36;;;;;;;2.28;1.42;;;;;;;;;;6104478;23;20460;-43
2022/06/21 08:48:27;;;;;;;2.70;1.27;;;;;;;;;;6129531;23;20291;-43
2022/06/21 08:51:12;;;;;;;2.30;1.73;;;;;;;;;;6130014;23;20181;-44
2022/06/21 08:53:46;;;;;;;3.28;1.98;;;;;;;;;;6129972;23;20158;-43
2022/06/21 08:56:18;;;;;;;3.40;1.65;;;;;;;;;;6130138;23;20159;-43
2022/06/21 08:59:09;;;;;;;3.15;2.10;;;;;;;;;;6104719;23;20178;-45
2022/06/21 09:01:51;;;;;;;5.78;2.03;;;;;;;;;;6129711;23;20154;-43
2022/06/21 09:04:26;;;;;;;2.58;1.95;;;;;;;;;;6129340;23;20249;-43
2022/06/21 09:07:14;;;;;;;3.90;2.30;;;;;;;;;;6129452;23;20485;-43
2022/06/21 09:10:29;;;;;;;5.65;2.25;;;;;;;;;;6129700;23;20233;-43
2022/06/21 09:13:15;;;;;;;3.67;2.03;;;;;;;;;;6097181;23;20170;-43
2022/06/21 09:16:06;;;;;;;6.85;2.20;;;;;;;;;;6129616;23;20165;-43
2022/06/21 09:18:40;;;;;;;4.10;2.15;;;;;;;;;;6130528;23;20167;-43
2022/06/21 09:21:16;;;;;;;3.05;2.08;;;;;;;;;;6129270;23;20162;-43
2022/06/21 09:23:57;;;;;;;2.40;2.20;;;;;;;;;;6129466;23;20162;-43
2022/06/21 09:26:28;;;;;;;2.78;2.00;;;;;;;;;;6129249;23;20608;-43
2022/06/21 09:29:18;;;;;;;2.60;2.00;;;;;;;;;;6129549;23;20154;-44
2022/06/21 09:32:03;;;;;;;4.10;2.20;;;;;;;;;;6129588;23;20181;-43
2022/06/21 09:34:52;;;;;;;3.67;1.52;;;;;;;;;;6104595;23;20155;-44
2022/06/21 09:37:31;;;;;;;2.33;1.35;;;;;;;;;;6129809;23;20208;-43
2022/06/21 09:40:09;;;;;;;1.98;1.27;;;;;;;;;;6104622;23;20162;-43
2022/06/21 09:43:21;;;;;;;4.20;1.50;;;;;;;;;;6108365;23;20171;-43
2022/06/21 09:46:00;;;;;;;2.95;1.60;;;;;;;;;;6129435;23;20158;-43
2022/06/21 09:48:36;;;;;;;2.47;2.25;;;;;;;;;;6128961;23;20220;-43
2022/06/21 09:51:47;;;;;;;2.90;1.88;;;;;;;;;;6108065;23;20573;-43
2022/06/21 09:54:37;;;;;;;2.60;2.05;;;;;;;;;;6129375;23;20221;-44
2022/06/21 09:57:17;;;;;;;3.53;1.90;;;;;;;;;;6129342;23;20177;-43
2022/06/21 10:00:16;;;;;;;2.45;1.08;;;;;;;;;;6128876;23;20173;-43
2022/06/21 10:03:06;;;;;;;2.42;1.35;;;;;;;;;;6104052;23;20228;-43
2022/06/21 10:05:42;;;;;;;2.65;1.55;;;;;;;;;;6104000;23;20174;-43
2022/06/21 10:08:16;;;;;;;4.72;1.00;;;;;;;;;;6103576;23;20195;-43
2022/06/21 10:11:16;;;;;;;2.25;1.13;;;;;;;;;;6129066;23;20158;-43
2022/06/21 10:14:17;;;;;;;1.75;1.23;;;;;;;;;;6129300;23;20162;-43
2022/06/21 10:16:53;;;;;;;2.72;1.48;;;;;;;;;;6129064;23;20189;-43
2022/06/21 10:19:26;;;;;;;2.80;1.10;;;;;;;;;;6128696;23;20161;-43
2022/06/21 10:22:12;;;;;;;6.93;1.40;;;;;;;;;;6103706;23;20272;-43
2022/06/21 10:24:45;;;;;;;4.57;1.23;;;;;;;;;;6129379;23;20166;-43
2022/06/21 10:27:36;;;;;;;3.28;1.50;;;;;;;;;;6128519;23;20531;-43
2022/06/21 10:30:21;;;;;;;1.20;1.10;;;;;;;;;;6129405;23;20185;-43
2022/06/21 10:33:04;;;;;;;2.70;1.63;;;;;;;;;;6128626;23;20173;-43
2022/06/21 10:35:47;;;;;;;3.05;0.90;;;;;;;;;;6128949;23;20162;-43
2022/06/21 10:38:31;;;;;;;1.35;0.95;;;;;;;;;;6103526;23;20601;-43
2022/06/21 10:41:11;;;;;;;3.10;1.30;;;;;;;;;;6128724;23;20477;-43
2022/06/21 10:43:40;;;;;;;3.22;1.20;;;;;;;;;;6128746;23;20237;-42
2022/06/21 10:46:16;;;;;;;5.53;1.63;;;;;;;;;;6128739;23;20228;-43
2022/06/21 10:48:49;;;;;;;1.63;1.50;;;;;;;;;;6128370;23;20209;-44
2022/06/21 10:51:35;;;;;;;1.85;1.30;;;;;;;;;;6128733;23;20163;-43
2022/06/21 10:54:27;;;;;;;3.55;1.70;;;;;;;;;;6129783;23;20158;-44
2022/06/21 10:57:18;;;;;;;4.50;1.33;;;;;;;;;;6128435;23;20593;-43
2022/06/21 11:03:29;;;;;;;3.15;1.10;;;;;;;;;;6104163;23;20177;-43
2022/06/21 11:06:11;;;;;;;1.60;1.35;;;;;;;;;;6128822;23;20158;-42
2022/06/21 11:09:03;;;;;;;2.80;1.33;;;;;;;;;;6103606;23;20186;-43
2022/06/21 11:11:30;;;;;;;3.30;1.65;;;;;;;;;;6128317;23;20221;-43
2022/06/21 11:14:13;;;;;;;7.95;1.15;;;;;;;;;;6128133;23;20170;-43
2022/06/21 11:16:56;;;;;;;2.28;1.15;;;;;;;;;;6128260;23;20597;-43
2022/06/21 11:19:26;;;;;;;2.08;1.10;;;;;;;;;;6103580;23;20169;-43
2022/06/21 11:22:22;;;;;;;3.17;1.08;;;;;;;;;;6128536;23;20162;-43
2022/06/21 11:24:56;;;;;;;0.68;0.68;;;;;;;;;;6103730;23;20220;-43
2022/06/21 11:27:39;;;;;;;1.13;0.70;;;;;;;;;;6128634;23;20186;-43
2022/06/21 11:30:31;;;;;;;1.00;0.70;;;;;;;;;;6103929;23;20224;-43
2022/06/21 11:33:11;;;;;;;1.17;0.80;;;;;;;;;;6128427;23;20178;-43
2022/06/21 11:35:49;;;;;;;1.27;0.98;;;;;;;;;;6128586;23;20162;-43
2022/06/21 11:38:24;;;;;;;1.15;0.90;;;;;;;;;;6128830;23;20204;-43
2022/06/21 11:40:57;;;;;;;1.42;1.10;;;;;;;;;;6130374;23;20233;-43
2022/06/21 11:43:42;;;;;;;1.65;1.25;;;;;;;;;;6105852;23;20155;-43
2022/06/21 11:46:29;;;;;;;1.48;0.90;;;;;;;;;;6130057;23;20166;-43
2022/06/21 11:49:03;;;;;;;0.80;0.80;;;;;;;;;;6098200;23;20213;-43
2022/06/21 11:51:55;;;;;;;1.80;0.95;;;;;;;;;;6104216;23;20204;-43
2022/06/21 11:54:31;;;;;;;0.75;0.68;;;;;;;;;;6128596;23;20201;-44
2022/06/21 11:57:17;;;;;;;5.78;0.90;;;;;;;;;;6104201;23;20221;-43
2022/06/21 11:59:57;;;;;;;1.42;1.20;;;;;;;;;;6128900;23;20224;-43
2022/06/21 12:02:32;;;;;;;1.55;0.93;;;;;;;;;;6128760;23;20198;-43
2022/06/21 12:05:02;;;;;;;2.95;1.20;;;;;;;;;;6103373;23;20264;-43
2022/06/21 12:07:40;;;;;;;2.58;1.40;;;;;;;;;;6127123;23;20205;-45
2022/06/21 12:10:46;;;;;;;2.13;1.20;;;;;;;;;;6103587;23;20471;-45
2022/06/21 12:13:31;;;;;;;1.85;1.10;;;;;;;;;;6085391;23;20194;-45
2022/06/21 12:16:04;;;;;;;1.45;1.13;;;;;;;;;;6128800;23;20198;-45
2022/06/21 12:18:34;;;;;;;1.35;1.25;;;;;;;;;;6103330;23;20213;-47
2022/06/21 12:21:03;;;;;;;2.28;1.10;;;;;;;;;;6128576;23;20225;-45
2022/06/21 12:23:44;;;;;;;1.75;1.23;;;;;;;;;;6103786;23;20222;-45
2022/06/21 12:26:15;;;;;;;1.55;1.17;;;;;;;;;;6128465;23;20206;-45
2022/06/21 12:28:42;;;;;;;2.40;1.35;;;;;;;;;;6103945;23;20206;-45
2022/06/21 12:31:14;;;;;;;1.83;1.20;;;;;;;;;;6103442;23;20206;-45
2022/06/21 12:33:44;;;;;;;2.97;1.23;;;;;;;;;;6105823;23;20194;-45
2022/06/21 12:36:19;;;;;;;1.90;1.48;;;;;;;;;;6102639;23;20194;-44
2022/06/21 12:38:59;;;;;;;4.43;1.30;;;;;;;;;;6128850;23;20201;-45
2022/06/21 12:41:48;;;;;;;1.98;1.50;;;;;;;;;;6103250;23;20647;-45
2022/06/21 12:44:27;;;;;;;2.10;1.25;;;;;;;;;;6103435;23;20621;-46
2022/06/21 12:47:11;;;;;;;1.70;1.20;;;;;;;;;;6128414;23;20212;-45
2022/06/21 12:50:14;;;;;;;2.50;0.90;;;;;;;;;;6127580;23;20214;-45
2022/06/21 12:52:49;;;;;;;2.60;1.08;;;;;;;;;;6104003;23;20204;-45
2022/06/21 12:55:34;;;;;;;1.52;0.93;;;;;;;;;;6102822;23;20205;-45
2022/06/21 12:58:16;;;;;;;4.30;1.10;;;;;;;;;;6128448;23;20221;-46
2022/06/21 13:00:51;;;;;;;4.28;1.10;;;;;;;;;;6128222;23;20198;-45
2022/06/21 13:03:40;;;;;;;2.38;1.05;;;;;;;;;;6102842;23;20197;-45
2022/06/21 13:06:52;;;;;;;1.70;0.98;;;;;;;;;;6128102;23;20194;-46
2022/06/21 13:09:24;;;;;;;3.45;0.85;;;;;;;;;;6010795;23;20212;-45
2022/06/21 13:12:00;;;;;;;5.57;1.30;;;;;;;;;;6010823;23;20479;-45
2022/06/21 13:14:50;;;;;;;2.58;1.20;;;;;;;;;;6011055;23;20211;-46
2022/06/21 13:18:15;;;;;;;4.57;1.25;;;;;;;;;;6009951;23;20656;-47
2022/06/21 13:21:12;;;;;;;5.65;1.48;;;;;;;;;;5904838;24;20638;-44
2022/06/21 13:23:52;;;;;;;2.00;1.30;;;;;;;;;;5904989;24;20207;-45
2022/06/21 13:26:43;;;;;;;4.25;1.42;;;;;;;;;;5926914;24;20203;-50
2022/06/21 13:29:31;;;;;;;4.15;1.30;;;;;;;;;;5927274;24;20215;-46
2022/06/21 13:32:04;;;;;;;4.07;1.20;;;;;;;;;;5926204;24;20209;-45
2022/06/21 13:34:47;;;;;;;4.35;1.30;;;;;;;;;;5904966;24;20198;-45
2022/06/21 13:37:22;;;;;;;5.30;1.20;;;;;;;;;;5904665;24;20199;-45
2022/06/21 13:39:57;;;;;;;6.20;1.42;;;;;;;;;;5905115;24;20211;-45
2022/06/21 13:42:41;;;;;;;4.10;1.25;;;;;;;;;;5909536;24;20209;-51
2022/06/21 13:45:25;;;;;;;6.07;1.33;;;;;;;;;;5982265;24;20593;-47
2022/06/21 13:48:00;;;;;;;3.33;1.02;;;;;;;;;;5981318;24;20244;-45
2022/06/21 13:50:51;;;;;;;2.13;0.98;;;;;;;;;;5982583;24;20197;-45
2022/06/21 13:53:48;;;;;;;2.85;1.00;;;;;;;;;;5990748;23;20721;-47
2022/06/21 13:56:46;;;;;;;1.67;0.70;;;;;;;;;;6070025;23;20233;-45
2022/06/21 13:59:38;;;;;;;1.38;0.55;;;;;;;;;;6126306;23;20166;-45
2022/06/21 14:02:08;;;;;;;1.58;0.88;;;;;;;;;;6128038;23;20177;-48
2022/06/21 14:05:07;;;;;;;5.05;0.70;;;;;;;;;;6102336;23;20170;-45
2022/06/21 14:07:51;;;;;;;2.10;0.60;;;;;;;;;;6102904;23;20174;-45
2022/06/21 14:10:23;;;;;;;1.42;0.60;;;;;;;;;;6128080;23;20593;-46
2022/06/21 14:12:56;;;;;;;1.08;0.50;;;;;;;;;;6128403;23;20253;-45
2022/06/21 14:15:48;;;;;;;1.08;0.30;;;;;;;;;;6128431;23;20154;-45
2022/06/21 14:18:23;;;;;;;2.95;0.60;;;;;;;;;;6103014;23;20508;-45
2022/06/21 14:21:05;;;;;;;1.80;0.50;;;;;;;;;;6128257;23;20169;-45
2022/06/21 14:23:56;;;;;;;1.30;0.70;;;;;;;;;;6128511;23;20173;-45
2022/06/21 14:26:31;;;;;;;4.25;0.50;;;;;;;;;;6103329;23;20190;-45
2022/06/21 14:29:21;;;;;;;3.00;0.60;;;;;;;;;;6103153;23;20182;-45
2022/06/21 14:32:08;;;;;;;0.90;0.40;;;;;;;;;;6122028;23;20162;-47
2022/06/21 14:34:47;;;;;;;0.73;0.40;;;;;;;;;;6126820;23;20198;-46
2022/06/21 14:37:17;;;;;;;2.88;0.60;;;;;;;;;;6101911;23;20194;-45
2022/06/21 14:40:20;;;;;;;0.98;0.47;;;;;;;;;;6127181;23;20260;-47
2022/06/21 14:42:51;;;;;;;1.38;0.40;;;;;;;;;;6101138;23;20204;-45
2022/06/21 14:45:25;;;;;;;1.30;0.60;;;;;;;;;;6102149;23;20478;-45
2022/06/21 14:48:14;;;;;;;2.38;0.70;;;;;;;;;;6099780;23;20217;-46
2022/06/21 14:50:45;;;;;;;2.17;0.70;;;;;;;;;;6125941;23;20198;-45
2022/06/21 14:53:40;;;;;;;1.63;0.80;;;;;;;;;;6125179;23;20209;-45
2022/06/21 14:56:07;;;;;;;1.75;0.90;;;;;;;;;;6126022;23;20194;-45
2022/06/21 14:59:10;;;;;;;1.50;0.75;;;;;;;;;;6122714;23;20197;-45
2022/06/21 15:02:25;;;;;;;2.13;0.88;;;;;;;;;;6126871;23;20495;-45
2022/06/21 15:05:06;;;;;;;2.75;0.77;;;;;;;;;;6127123;23;20198;-45
2022/06/21 15:07:47;;;;;;;3.35;1.05;;;;;;;;;;6102351;23;20194;-45
2022/06/21 15:10:33;;;;;;;2.25;1.00;;;;;;;;;;6101720;23;20637;-45
2022/06/21 15:13:07;;;;;;;1.05;0.90;;;;;;;;;;6126883;23;20194;-44
2022/06/21 15:15:39;;;;;;;1.70;1.00;;;;;;;;;;6102395;23;20201;-46
2022/06/21 15:18:25;;;;;;;2.30;1.00;;;;;;;;;;6101339;23;20208;-46
2022/06/21 15:21:15;;;;;;;1.40;0.88;;;;;;;;;;6127182;23;20502;-46
2022/06/21 15:23:47;;;;;;;1.92;0.80;;;;;;;;;;6126332;23;20200;-46
2022/06/21 15:26:17;;;;;;;3.40;0.90;;;;;;;;;;6102216;23;20198;-46
2022/06/21 15:28:47;;;;;;;2.80;1.25;;;;;;;;;;6126306;23;20206;-46
2022/06/21 15:31:23;;;;;;;3.30;1.30;;;;;;;;;;6100271;23;20202;-46
2022/06/21 15:33:55;;;;;;;2.13;1.13;;;;;;;;;;6125361;23;20704;-46
2022/06/21 15:36:31;;;;;;;2.80;1.38;;;;;;;;;;6125705;23;20253;-46
2022/06/21 15:39:15;;;;;;;2.90;1.10;;;;;;;;;;6125723;23;20198;-46
2022/06/21 15:41:42;;;;;;;1.52;1.10;;;;;;;;;;6126953;23;20194;-47
2022/06/21 15:44:37;;;;;;;4.63;1.05;;;;;;;;;;6126210;23;20198;-46
2022/06/21 15:50:56;;;;;;;2.13;1.27;;;;;;;;;;6126615;23;20236;-47
2022/06/21 15:53:48;;;;;;;3.47;1.63;;;;;;;;;;6127076;23;20229;-46
2022/06/21 15:56:39;;;;;;;1.42;1.00;;;;;;;;;;6126705;23;20202;-47
2022/06/21 15:59:34;;;;;;;2.63;1.40;;;;;;;;;;6101696;23;20637;-46
2022/06/21 16:02:20;;;;;;;2.72;1.35;;;;;;;;;;6126550;23;20194;-46
2022/06/21 16:04:53;;;;;;;4.82;1.50;;;;;;;;;;6126452;23;20198;-47
2022/06/21 16:07:29;;;;;;;1.60;1.27;;;;;;;;;;6126537;23;20202;-46
2022/06/21 16:09:56;;;;;;;2.33;1.20;;;;;;;;;;6126169;23;20660;-46
2022/06/21 16:12:35;;;;;;;4.28;1.40;;;;;;;;;;6126832;23;20210;-46